sensor_id;sensor_type;location;lat;lon;timestamp;temperature;humidity
10441;DHT22;5268;49.346;9.522;2023-03-22T04:07:39;7.00;99.90
10441;DHT22;5268;49.346;9.522;2023-03-22T04:12:41;6.90;99.90
10441;DHT22;5268;49.346;9.522;2023-03-22T04:17:43;6.90;99.90
10441;DHT22;5268;49.346;9.522;2023-03-22T04:22:47;6.90;99.90
10441;DHT22;5268;49.346;9.522;2023-03-22T04:27:49;6.80;99.90
10441;DHT22;5268;49.346;9.522;2023-03-22T04:32:55;6.90;99.90
10441;DHT22;5268;49.346;9.522;2023-03-22T04:37:59;6.80;99.90
10441;DHT22;5268;49.346;9.522;2023-03-22T04:43:01;6.80;99.90
10441;DHT22;5268;49.346;9.522;2023-03-22T04:48:04;6.80;99.90
10441;DHT22;5268;49.346;9.522;2023-03-22T04:53:08;6.80;99.90
10441;DHT22;5268;49.346;9.522;2023-03-22T04:58:11;6.80;99.90
10441;DHT22;5268;49.346;9.522;2023-03-22T05:03:16;6.80;99.90
10441;DHT22;5268;49.346;9.522;2023-03-22T05:08:21;6.80;99.90
10441;DHT22;5268;49.346;9.522;2023-03-22T05:13:26;6.70;99.90
10441;DHT22;5268;49.346;9.522;2023-03-22T05:18:28;6.70;99.90
10441;DHT22;5268;49.346;9.522;2023-03-22T05:23:33;6.70;99.90
10441;DHT22;5268;49.346;9.522;2023-03-22T05:28:36;6.70;99.90
10441;DHT22;5268;49.346;9.522;2023-03-22T05:33:39;6.60;99.90
10441;DHT22;5268;49.346;9.522;2023-03-22T05:38:42;6.60;99.90
10441;DHT22;5268;49.346;9.522;2023-03-22T05:43:45;6.60;99.90
10441;DHT22;5268;49.346;9.522;2023-03-22T05:48:47;6.60;99.90
10441;DHT22;5268;49.346;9.522;2023-03-22T05:53:51;6.60;99.90
10441;DHT22;5268;49.346;9.522;2023-03-22T05:58:54;6.60;99.90
10441;DHT22;5268;49.346;9.522;2023-03-22T06:03:57;6.60;99.90
10441;DHT22;5268;49.346;9.522;2023-03-22T06:09:01;6.60;99.90
10441;DHT22;5268;49.346;9.522;2023-03-22T06:14:04;6.70;99.90
10441;DHT22;5268;49.346;9.522;2023-03-22T06:19:06;6.80;99.90
10441;DHT22;5268;49.346;9.522;2023-03-22T06:24:09;6.90;99.90
10441;DHT22;5268;49.346;9.522;2023-03-22T06:29:11;6.90;99.90
10441;DHT22;5268;49.346;9.522;2023-03-22T06:34:14;7.00;99.90
10441;DHT22;5268;49.346;9.522;2023-03-22T06:39:17;7.10;99.90
10441;DHT22;5268;49.346;9.522;2023-03-22T06:44:19;7.20;99.90
10441;DHT22;5268;49.346;9.522;2023-03-22T06:49:22;7.30;99.90
10441;DHT22;5268;49.346;9.522;2023-03-22T06:54:25;7.40;99.90
10441;DHT22;5268;49.346;9.522;2023-03-22T06:59:28;7.90;99.90
10441;DHT22;5268;49.346;9.522;2023-03-22T07:04:30;8.50;99.90
10441;DHT22;5268;49.346;9.522;2023-03-22T07:09:34;9.00;99.90
10441;DHT22;5268;49.346;9.522;2023-03-22T07:14:36;9.40;99.90
10441;DHT22;5268;49.346;9.522;2023-03-22T07:19:37;9.60;99.90
10441;DHT22;5268;49.346;9.522;2023-03-22T07:24:42;9.80;99.90
10441;DHT22;5268;49.346;9.522;2023-03-22T07:29:45;10.10;99.90
10441;DHT22;5268;49.346;9.522;2023-03-22T07:34:47;10.90;99.90
10441;DHT22;5268;49.346;9.522;2023-03-22T07:39:51;12.10;99.90
10441;DHT22;5268;49.346;9.522;2023-03-22T07:44:53;13.00;99.90
10441;DHT22;5268;49.346;9.522;2023-03-22T07:49:55;13.60;99.90
10441;DHT22;5268;49.346;9.522;2023-03-22T07:54:59;13.80;99.90
10441;DHT22;5268;49.346;9.522;2023-03-22T08:00:01;14.10;99.90
10441;DHT22;5268;49.346;9.522;2023-03-22T08:05:05;14.20;99.90
10441;DHT22;5268;49.346;9.522;2023-03-22T08:10:09;14.40;99.90
10441;DHT22;5268;49.346;9.522;2023-03-22T08:15:11;14.60;99.90
10441;DHT22;5268;49.346;9.522;2023-03-22T08:20:13;14.80;99.90
10441;DHT22;5268;49.346;9.522;2023-03-22T08:25:19;15.20;99.90
10441;DHT22;5268;49.346;9.522;2023-03-22T08:30:21;15.40;99.90
10441;DHT22;5268;49.346;9.522;2023-03-22T08:35:24;15.70;99.90
10441;DHT22;5268;49.346;9.522;2023-03-22T08:40:27;16.00;99.90
10441;DHT22;5268;49.346;9.522;2023-03-22T08:45:29;16.20;99.90
10441;DHT22;5268;49.346;9.522;2023-03-22T08:50:31;16.20;99.90
10441;DHT22;5268;49.346;9.522;2023-03-22T08:55:39;16.40;99.90
10441;DHT22;5268;49.346;9.522;2023-03-22T09:00:44;16.40;99.90
10441;DHT22;5268;49.346;9.522;2023-03-22T09:05:47;16.40;99.90
10441;DHT22;5268;49.346;9.522;2023-03-22T09:10:50;16.30;99.90
10441;DHT22;5268;49.346;9.522;2023-03-22T09:15:52;16.20;99.90
10441;DHT22;5268;49.346;9.522;2023-03-22T09:20:54;16.20;99.90
10441;DHT22;5268;49.346;9.522;2023-03-22T09:25:58;16.30;99.90
10441;DHT22;5268;49.346;9.522;2023-03-22T09:31:01;16.30;99.90
10441;DHT22;5268;49.346;9.522;2023-03-22T09:36:04;16.30;99.90
10441;DHT22;5268;49.346;9.522;2023-03-22T09:41:12;16.20;99.90
10441;DHT22;5268;49.346;9.522;2023-03-22T09:46:19;16.00;99.90
10441;DHT22;5268;49.346;9.522;2023-03-22T09:51:32;15.90;99.90
10441;DHT22;5268;49.346;9.522;2023-03-22T09:56:39;15.80;99.90
10441;DHT22;5268;49.346;9.522;2023-03-22T10:01:45;16.10;99.90
10441;DHT22;5268;49.346;9.522;2023-03-22T10:06:53;16.30;99.90
10441;DHT22;5268;49.346;9.522;2023-03-22T10:12:07;16.50;99.90
10441;DHT22;5268;49.346;9.522;2023-03-22T10:17:16;16.50;99.90
10441;DHT22;5268;49.346;9.522;2023-03-22T10:22:22;16.80;99.90
10441;DHT22;5268;49.346;9.522;2023-03-22T10:27:28;17.00;99.90
10441;DHT22;5268;49.346;9.522;2023-03-22T10:32:35;17.00;99.90
10441;DHT22;5268;49.346;9.522;2023-03-22T10:37:42;16.70;99.90
10441;DHT22;5268;49.346;9.522;2023-03-22T10:42:52;16.60;99.90
10441;DHT22;5268;49.346;9.522;2023-03-22T10:47:58;16.70;99.90
10441;DHT22;5268;49.346;9.522;2023-03-22T10:53:04;17.10;99.90
10441;DHT22;5268;49.346;9.522;2023-03-22T10:58:13;17.20;99.90
10441;DHT22;5268;49.346;9.522;2023-03-22T11:03:26;17.20;99.90
10441;DHT22;5268;49.346;9.522;2023-03-22T11:08:37;17.40;99.90
10441;DHT22;5268;49.346;9.522;2023-03-22T11:13:41;17.80;99.90
10441;DHT22;5268;49.346;9.522;2023-03-22T11:18:45;17.90;99.90
10441;DHT22;5268;49.346;9.522;2023-03-22T11:23:53;18.10;99.90
10441;DHT22;5268;49.346;9.522;2023-03-22T11:29:12;18.20;99.90
10441;DHT22;5268;49.346;9.522;2023-03-22T11:34:18;18.30;99.90
10441;DHT22;5268;49.346;9.522;2023-03-22T11:39:22;18.30;99.90
10441;DHT22;5268;49.346;9.522;2023-03-22T11:44:26;18.20;99.90
10441;DHT22;5268;49.346;9.522;2023-03-22T11:49:36;18.20;99.90
10441;DHT22;5268;49.346;9.522;2023-03-22T11:54:39;18.10;99.90
10441;DHT22;5268;49.346;9.522;2023-03-22T11:59:48;18.10;99.90
10441;DHT22;5268;49.346;9.522;2023-03-22T12:04:53;18.10;99.90
10441;DHT22;5268;49.346;9.522;2023-03-22T12:10:03;18.10;99.90
10441;DHT22;5268;49.346;9.522;2023-03-22T12:15:13;18.20;99.90
10441;DHT22;5268;49.346;9.522;2023-03-22T12:20:20;18.20;99.90
10441;DHT22;5268;49.346;9.522;2023-03-22T12:25:31;18.20;99.90
10441;DHT22;5268;49.346;9.522;2023-03-22T12:30:39;18.10;99.90
10441;DHT22;5268;49.346;9.522;2023-03-22T12:35:44;18.20;99.90
10441;DHT22;5268;49.346;9.522;2023-03-22T12:40:47;18.20;99.90
10441;DHT22;5268;49.346;9.522;2023-03-22T12:45:57;18.30;99.90
10441;DHT22;5268;49.346;9.522;2023-03-22T12:51:01;18.50;99.90
10441;DHT22;5268;49.346;9.522;2023-03-22T12:56:05;18.80;99.90
10441;DHT22;5268;49.346;9.522;2023-03-22T13:01:19;18.90;99.90
10441;DHT22;5268;49.346;9.522;2023-03-22T13:06:31;18.90;99.90
10441;DHT22;5268;49.346;9.522;2023-03-22T13:11:34;19.00;99.90
10441;DHT22;5268;49.346;9.522;2023-03-22T13:16:54;19.10;99.90
10441;DHT22;5268;49.346;9.522;2023-03-22T13:22:20;19.30;99.90
10441;DHT22;5268;49.346;9.522;2023-03-22T13:27:36;19.50;99.90
10441;DHT22;5268;49.346;9.522;2023-03-22T13:32:45;19.60;99.90
10441;DHT22;5268;49.346;9.522;2023-03-22T13:37:50;19.60;99.90
10441;DHT22;5268;49.346;9.522;2023-03-22T13:42:52;19.60;99.90
10441;DHT22;5268;49.346;9.522;2023-03-22T13:48:07;19.50;99.90
10441;DHT22;5268;49.346;9.522;2023-03-22T13:53:14;19.40;99.90
10441;DHT22;5268;49.346;9.522;2023-03-22T13:58:36;19.40;99.90
10441;DHT22;5268;49.346;9.522;2023-03-22T14:03:42;19.40;99.90
10441;DHT22;5268;49.346;9.522;2023-03-22T14:08:46;19.30;99.90
10441;DHT22;5268;49.346;9.522;2023-03-22T14:13:53;19.10;99.90
10441;DHT22;5268;49.346;9.522;2023-03-22T14:18:59;19.00;99.90
10441;DHT22;5268;49.346;9.522;2023-03-22T14:24:02;18.90;99.90
10441;DHT22;5268;49.346;9.522;2023-03-22T14:29:08;18.90;99.90
10441;DHT22;5268;49.346;9.522;2023-03-22T14:34:15;18.80;99.90
10441;DHT22;5268;49.346;9.522;2023-03-22T14:39:21;18.80;99.90
10441;DHT22;5268;49.346;9.522;2023-03-22T14:44:23;18.70;99.90
10441;DHT22;5268;49.346;9.522;2023-03-22T14:49:27;18.70;99.90
10441;DHT22;5268;49.346;9.522;2023-03-22T14:54:29;18.70;99.90
10441;DHT22;5268;49.346;9.522;2023-03-22T14:59:31;18.80;99.90
10441;DHT22;5268;49.346;9.522;2023-03-22T15:04:35;18.90;99.90
10441;DHT22;5268;49.346;9.522;2023-03-22T15:09:37;18.90;99.90
10441;DHT22;5268;49.346;9.522;2023-03-22T15:14:39;18.80;99.90
10441;DHT22;5268;49.346;9.522;2023-03-22T15:19:47;18.80;99.90
10441;DHT22;5268;49.346;9.522;2023-03-22T15:24:52;18.70;99.90
10441;DHT22;5268;49.346;9.522;2023-03-22T15:29:55;18.70;99.90
10441;DHT22;5268;49.346;9.522;2023-03-22T15:35:04;18.60;99.90
10441;DHT22;5268;49.346;9.522;2023-03-22T15:40:26;18.60;99.90
10441;DHT22;5268;49.346;9.522;2023-03-22T15:45:29;18.60;99.90
10441;DHT22;5268;49.346;9.522;2023-03-22T15:50:38;18.60;99.90
10441;DHT22;5268;49.346;9.522;2023-03-22T15:55:42;18.60;99.90
10441;DHT22;5268;49.346;9.522;2023-03-22T16:00:45;18.50;99.90
10441;DHT22;5268;49.346;9.522;2023-03-22T16:05:48;18.50;99.90
10441;DHT22;5268;49.346;9.522;2023-03-22T16:10:50;18.50;99.90
10441;DHT22;5268;49.346;9.522;2023-03-22T16:15:52;18.50;99.90
10441;DHT22;5268;49.346;9.522;2023-03-22T16:20:57;18.30;99.90
10441;DHT22;5268;49.346;9.522;2023-03-22T16:25:59;18.20;99.90
10441;DHT22;5268;49.346;9.522;2023-03-22T16:31:03;18.10;99.90
10441;DHT22;5268;49.346;9.522;2023-03-22T16:36:09;18.00;99.90
10441;DHT22;5268;49.346;9.522;2023-03-22T16:41:18;18.00;99.90
10441;DHT22;5268;49.346;9.522;2023-03-22T16:46:21;17.90;99.90
10441;DHT22;5268;49.346;9.522;2023-03-22T16:51:26;17.80;99.90
10441;DHT22;5268;49.346;9.522;2023-03-22T16:56:28;17.70;99.90
10441;DHT22;5268;49.346;9.522;2023-03-22T17:01:32;17.60;99.90
10441;DHT22;5268;49.346;9.522;2023-03-22T17:06:36;17.40;99.90
10441;DHT22;5268;49.346;9.522;2023-03-22T17:11:38;17.40;99.90
10441;DHT22;5268;49.346;9.522;2023-03-22T17:16:40;17.30;99.90
10441;DHT22;5268;49.346;9.522;2023-03-22T17:21:43;17.20;99.90
10441;DHT22;5268;49.346;9.522;2023-03-22T17:26:45;17.20;99.90
10441;DHT22;5268;49.346;9.522;2023-03-22T17:31:47;17.10;99.90
10441;DHT22;5268;49.346;9.522;2023-03-22T17:36:50;17.00;99.90
10441;DHT22;5268;49.346;9.522;2023-03-22T17:41:52;17.00;99.90
10441;DHT22;5268;49.346;9.522;2023-03-22T17:46:54;16.90;99.90
10441;DHT22;5268;49.346;9.522;2023-03-22T17:51:58;16.80;99.90
10441;DHT22;5268;49.346;9.522;2023-03-22T17:57:00;16.70;99.90
10441;DHT22;5268;49.346;9.522;2023-03-22T18:02:02;16.60;99.90
10441;DHT22;5268;49.346;9.522;2023-03-22T18:07:06;16.40;99.90
10441;DHT22;5268;49.346;9.522;2023-03-22T18:12:08;16.30;99.90
10441;DHT22;5268;49.346;9.522;2023-03-22T18:17:10;16.10;99.90
10441;DHT22;5268;49.346;9.522;2023-03-22T18:22:15;16.00;99.90
10441;DHT22;5268;49.346;9.522;2023-03-22T18:27:17;15.90;99.90
10441;DHT22;5268;49.346;9.522;2023-03-22T18:32:19;15.80;99.90
10441;DHT22;5268;49.346;9.522;2023-03-22T18:37:22;15.70;99.90
10441;DHT22;5268;49.346;9.522;2023-03-22T18:42:25;15.50;99.90
10441;DHT22;5268;49.346;9.522;2023-03-22T18:47:27;15.40;99.90
10441;DHT22;5268;49.346;9.522;2023-03-22T18:52:30;15.40;99.90
10441;DHT22;5268;49.346;9.522;2023-03-22T18:57:32;15.30;99.90
10441;DHT22;5268;49.346;9.522;2023-03-22T19:02:35;15.20;99.90
10441;DHT22;5268;49.346;9.522;2023-03-22T19:07:39;15.10;99.90
10441;DHT22;5268;49.346;9.522;2023-03-22T19:12:40;15.00;99.90
10441;DHT22;5268;49.346;9.522;2023-03-22T19:17:45;14.90;99.90
10441;DHT22;5268;49.346;9.522;2023-03-22T19:22:48;14.90;99.90
10441;DHT22;5268;49.346;9.522;2023-03-22T19:27:50;14.80;99.90
10441;DHT22;5268;49.346;9.522;2023-03-22T19:32:52;14.80;99.90
10441;DHT22;5268;49.346;9.522;2023-03-22T19:37:56;14.70;99.90
10441;DHT22;5268;49.346;9.522;2023-03-22T19:42:59;14.60;99.90
10441;DHT22;5268;49.346;9.522;2023-03-22T19:48:01;14.60;99.90
10441;DHT22;5268;49.346;9.522;2023-03-22T19:53:04;14.60;99.90
10441;DHT22;5268;49.346;9.522;2023-03-22T19:58:06;14.50;99.90
10441;DHT22;5268;49.346;9.522;2023-03-22T20:03:08;14.40;99.90
10441;DHT22;5268;49.346;9.522;2023-03-22T20:08:13;14.40;99.90
10441;DHT22;5268;49.346;9.522;2023-03-22T20:13:16;14.30;99.90
10441;DHT22;5268;49.346;9.522;2023-03-22T20:18:17;14.20;99.90
10441;DHT22;5268;49.346;9.522;2023-03-22T20:23:22;14.20;99.90
10441;DHT22;5268;49.346;9.522;2023-03-22T20:28:26;14.20;99.90
10441;DHT22;5268;49.346;9.522;2023-03-22T20:33:29;14.10;99.90
10441;DHT22;5268;49.346;9.522;2023-03-22T20:38:32;14.10;99.90
10441;DHT22;5268;49.346;9.522;2023-03-22T20:43:34;14.10;99.90
10441;DHT22;5268;49.346;9.522;2023-03-22T20:48:36;14.00;99.90
10441;DHT22;5268;49.346;9.522;2023-03-22T20:53:40;13.90;99.90
10441;DHT22;5268;49.346;9.522;2023-03-22T20:58:42;13.80;99.90
10441;DHT22;5268;49.346;9.522;2023-03-22T21:03:44;13.80;99.90
10441;DHT22;5268;49.346;9.522;2023-03-22T21:08:47;13.70;99.90
10441;DHT22;5268;49.346;9.522;2023-03-22T21:13:49;13.70;99.90
10441;DHT22;5268;49.346;9.522;2023-03-22T21:18:51;13.70;99.90
10441;DHT22;5268;49.346;9.522;2023-03-22T21:23:55;13.60;99.90
10441;DHT22;5268;49.346;9.522;2023-03-22T21:28:57;13.60;99.90
10441;DHT22;5268;49.346;9.522;2023-03-22T21:33:59;13.60;99.90
10441;DHT22;5268;49.346;9.522;2023-03-22T21:39:04;13.50;99.90
10441;DHT22;5268;49.346;9.522;2023-03-22T21:44:07;13.50;99.90
10441;DHT22;5268;49.346;9.522;2023-03-22T21:49:11;13.50;99.90
10441;DHT22;5268;49.346;9.522;2023-03-22T21:54:15;13.50;99.90
10441;DHT22;5268;49.346;9.522;2023-03-22T21:59:17;13.50;99.90
10441;DHT22;5268;49.346;9.522;2023-03-22T22:04:19;13.40;99.90
10441;DHT22;5268;49.346;9.522;2023-03-22T22:09:23;13.40;99.90
10441;DHT22;5268;49.346;9.522;2023-03-22T22:14:25;13.40;99.90
10441;DHT22;5268;49.346;9.522;2023-03-22T22:19:27;13.40;99.90
10441;DHT22;5268;49.346;9.522;2023-03-22T22:24:30;13.30;99.90
10441;DHT22;5268;49.346;9.522;2023-03-22T22:29:32;13.30;99.90
10441;DHT22;5268;49.346;9.522;2023-03-22T22:34:34;13.30;99.90
10441;DHT22;5268;49.346;9.522;2023-03-22T22:39:38;13.30;99.90
10441;DHT22;5268;49.346;9.522;2023-03-22T22:44:40;13.30;99.90
10441;DHT22;5268;49.346;9.522;2023-03-22T22:49:42;13.20;99.90
10441;DHT22;5268;49.346;9.522;2023-03-22T22:54:46;13.20;99.90
